Time;durP1;ratioP1;P1;durP2;ratioP2;P2;SDS_P1;SDS_P2;PMS_P1;PMS_P2;Temp;Humidity;BMP_temperature;BMP_pressure;BME280_temperature;BME280_humidity;BME280_pressure;Samples;Min_cycle;Max_cycle;Signal;HPM_P1;HPM_P2
2022/08/15 00:07:34;;;;;;;0.20;0.00;;;25.60;99.90;;;;;;26173144;22;20294;-68
2022/08/15 00:17:51;;;;;;;0.20;0.00;;;25.60;99.90;;;;;;26171647;22;20222;-69
2022/08/15 00:27:59;;;;;;;0.20;0.00;;;25.70;99.90;;;;;;26146045;22;20167;-68
2022/08/15 00:38:04;;;;;;;0.20;0.10;;;25.70;99.90;;;;;;26169332;22;20184;-69
2022/08/15 00:58:39;;;;;;;0.20;0.00;;;25.40;99.90;;;;;;26142470;22;20206;-69
2022/08/15 01:09:01;;;;;;;0.20;0.00;;;25.20;99.90;;;;;;26168560;22;20202;-69
2022/08/15 01:19:19;;;;;;;0.20;0.10;;;25.20;99.90;;;;;;26144668;22;20258;-69
2022/08/15 01:29:26;;;;;;;0.20;0.00;;;25.20;99.90;;;;;;26142837;22;20190;-68
2022/08/15 01:39:37;;;;;;;0.20;0.00;;;25.30;99.90;;;;;;26117734;22;20259;-68
2022/08/15 01:49:50;;;;;;;0.20;0.00;;;25.40;99.90;;;;;;26169354;22;20156;-70
2022/08/15 02:00:02;;;;;;;0.20;0.00;;;25.60;99.90;;;;;;26169463;22;20214;-70
2022/08/15 02:10:22;;;;;;;0.20;0.00;;;25.50;99.90;;;;;;26178099;22;20281;-69
2022/08/15 02:20:30;;;;;;;0.20;0.00;;;25.50;99.90;;;;;;26153123;22;20163;-69
2022/08/15 02:30:43;;;;;;;0.20;0.10;;;25.50;99.90;;;;;;26178226;22;20194;-70
2022/08/15 02:40:48;;;;;;;0.20;0.10;;;25.40;99.90;;;;;;26176982;22;20172;-68
2022/08/15 02:50:56;;;;;;;0.20;0.00;;;25.10;99.90;;;;;;26175991;22;20179;-69
2022/08/15 03:00:59;;;;;;;0.20;0.00;;;25.00;99.90;;;;;;26175216;22;20178;-69
2022/08/15 03:11:18;;;;;;;0.20;0.00;;;25.00;99.90;;;;;;26146256;22;20202;-70
2022/08/15 03:21:22;;;;;;;0.20;0.00;;;24.90;99.90;;;;;;26176161;22;20169;-69
2022/08/15 03:31:27;;;;;;;0.20;0.10;;;24.70;99.90;;;;;;26145787;22;20194;-69
2022/08/15 03:41:31;;;;;;;0.20;0.00;;;24.60;99.90;;;;;;26146623;22;20748;-69
2022/08/15 03:51:36;;;;;;;0.20;0.00;;;24.50;99.90;;;;;;26171923;22;20195;-68
2022/08/15 04:01:45;;;;;;;0.20;0.00;;;24.50;99.90;;;;;;26173963;22;20167;-69
2022/08/15 04:11:51;;;;;;;0.20;0.00;;;24.50;99.90;;;;;;26173761;22;20214;-69
2022/08/15 04:21:56;;;;;;;0.20;0.00;;;24.50;99.90;;;;;;26171817;22;20167;-70
2022/08/15 04:32:01;;;;;;;0.20;0.00;;;24.40;99.90;;;;;;26171832;22;20199;-70
2022/08/15 04:42:06;;;;;;;0.20;0.00;;;24.40;99.90;;;;;;26171168;22;20167;-70
2022/08/15 04:52:14;;;;;;;0.20;0.00;;;24.30;99.90;;;;;;26172701;22;20194;-68
2022/08/15 05:02:25;;;;;;;0.20;0.00;;;24.40;99.90;;;;;;26143849;22;20170;-70
2022/08/15 05:12:50;;;;;;;0.20;0.00;;;24.40;99.90;;;;;;26172225;22;20214;-71
2022/08/15 05:22:58;;;;;;;0.20;0.00;;;24.40;99.90;;;;;;26171093;22;20180;-71
2022/08/15 05:33:11;;;;;;;0.20;0.00;;;24.40;99.90;;;;;;26166282;22;20242;-70
2022/08/15 05:43:21;;;;;;;0.20;0.00;;;24.30;99.90;;;;;;26170589;22;20177;-70
2022/08/15 05:53:31;;;;;;;0.20;0.10;;;24.40;99.90;;;;;;26169447;22;20183;-70
2022/08/15 06:03:36;;;;;;;0.20;0.00;;;24.60;99.90;;;;;;26166255;22;20156;-71
2022/08/15 06:13:50;;;;;;;0.20;0.00;;;24.70;99.90;;;;;;26167631;22;20206;-70
2022/08/15 06:24:02;;;;;;;0.20;0.00;;;24.80;99.90;;;;;;26167781;22;20173;-71
2022/08/15 06:34:22;;;;;;;0.20;0.05;;;25.00;99.90;;;;;;26167873;22;20178;-69
2022/08/15 06:44:49;;;;;;;0.20;0.00;;;25.30;99.90;;;;;;26166302;22;20167;-68
2022/08/15 06:54:56;;;;;;;0.20;0.00;;;25.50;99.90;;;;;;26148878;22;20184;-68
2022/08/15 07:05:07;;;;;;;0.20;0.10;;;25.80;99.90;;;;;;26144486;22;20196;-69
2022/08/15 07:15:22;;;;;;;0.20;0.00;;;26.20;99.90;;;;;;26146626;22;20203;-68
2022/08/15 07:25:29;;;;;;;0.20;0.00;;;26.60;99.90;;;;;;26172721;22;20156;-68
2022/08/15 07:35:36;;;;;;;0.20;0.00;;;27.00;99.90;;;;;;26173524;22;20199;-69
2022/08/15 07:45:42;;;;;;;0.20;0.00;;;27.30;99.90;;;;;;26171703;22;20178;-67
2022/08/15 07:56:15;;;;;;;0.20;0.00;;;27.90;99.90;;;;;;26119122;22;20186;-68
2022/08/15 08:06:43;;;;;;;0.20;0.10;;;28.00;99.90;;;;;;26117338;22;20202;-70
2022/08/15 08:17:03;;;;;;;0.20;0.00;;;27.90;99.90;;;;;;26168544;22;20210;-67
2022/08/15 08:27:19;;;;;;;0.20;0.00;;;28.10;99.90;;;;;;26169466;22;20170;-69
2022/08/15 08:37:30;;;;;;;0.20;0.00;;;28.10;99.90;;;;;;26141197;22;20186;-68
2022/08/15 08:47:58;;;;;;;0.20;0.00;;;28.60;99.90;;;;;;26169829;22;20171;-67
2022/08/15 08:58:09;;;;;;;0.20;0.10;;;28.80;99.90;;;;;;26141049;22;20195;-68
2022/08/15 09:08:18;;;;;;;0.20;0.00;;;28.80;99.90;;;;;;26167451;22;20207;-68
2022/08/15 09:18:29;;;;;;;0.20;0.00;;;28.60;99.90;;;;;;26140202;22;20187;-68
2022/08/15 09:28:36;;;;;;;0.20;0.10;;;29.40;99.90;;;;;;26167060;22;20170;-68
2022/08/15 09:38:53;;;;;;;0.20;0.00;;;29.30;99.90;;;;;;26166667;22;20274;-68
2022/08/15 09:49:10;;;;;;;0.20;0.00;;;29.40;99.90;;;;;;26168580;22;20162;-71
2022/08/15 09:59:20;;;;;;;0.20;0.00;;;29.40;99.90;;;;;;26139064;22;20187;-69
2022/08/15 10:09:32;;;;;;;0.20;0.00;;;29.50;99.90;;;;;;26141175;22;20240;-70
2022/08/15 10:19:39;;;;;;;0.20;0.00;;;29.50;99.90;;;;;;26165508;22;20187;-70
2022/08/15 10:30:14;;;;;;;0.20;0.00;;;29.60;99.90;;;;;;26143951;22;20183;-71
2022/08/15 10:40:48;;;;;;;0.20;0.00;;;30.00;99.90;;;;;;26145601;22;20193;-71
2022/08/15 10:51:01;;;;;;;0.20;0.00;;;30.10;99.90;;;;;;26174826;22;20163;-68
2022/08/15 11:01:13;;;;;;;0.20;0.08;;;30.20;99.90;;;;;;26146701;22;20183;-71
2022/08/15 11:11:32;;;;;;;0.30;0.30;;;30.50;99.90;;;;;;26173683;22;20200;-71
2022/08/15 11:21:42;;;;;;;0.20;0.00;;;31.00;99.90;;;;;;26144851;22;20186;-68
2022/08/15 11:31:50;;;;;;;0.20;0.00;;;31.60;99.90;;;;;;26143493;22;20297;-69
2022/08/15 11:42:04;;;;;;;0.20;0.00;;;32.20;99.90;;;;;;26170804;22;20186;-69
2022/08/15 11:52:10;;;;;;;0.20;0.00;;;31.60;99.90;;;;;;26143437;22;20184;-70
2022/08/15 12:02:36;;;;;;;0.20;0.00;;;32.40;99.90;;;;;;26143267;22;20167;-71
2022/08/15 12:12:49;;;;;;;0.20;0.00;;;32.60;99.90;;;;;;26171417;22;20217;-70
2022/08/15 12:22:54;;;;;;;0.20;0.00;;;33.40;99.90;;;;;;26169853;22;20163;-71
2022/08/15 12:33:03;;;;;;;0.20;0.00;;;33.40;99.90;;;;;;26142283;22;20179;-70
2022/08/15 12:43:15;;;;;;;0.20;0.00;;;33.40;99.90;;;;;;26170433;22;21081;-74
2022/08/15 12:53:19;;;;;;;0.20;0.00;;;33.20;99.90;;;;;;26168085;22;20179;-72
2022/08/15 13:03:29;;;;;;;0.20;0.00;;;33.10;99.90;;;;;;26142285;22;20159;-71
2022/08/15 13:13:53;;;;;;;0.20;0.00;;;33.60;99.90;;;;;;26166480;22;20206;-72
2022/08/15 13:23:59;;;;;;;0.20;0.00;;;34.30;99.90;;;;;;26169448;22;20175;-72
2022/08/15 13:34:24;;;;;;;0.20;0.00;;;33.40;99.90;;;;;;26160351;22;20198;-71
2022/08/15 13:44:31;;;;;;;0.20;0.00;;;33.50;99.90;;;;;;26166710;22;20179;-72
2022/08/15 13:54:35;;;;;;;0.20;0.00;;;33.10;99.90;;;;;;26168133;22;20179;-71
2022/08/15 14:04:54;;;;;;;0.20;0.00;;;32.80;99.90;;;;;;26176899;22;20179;-71
2022/08/15 14:15:01;;;;;;;0.20;0.00;;;33.50;99.90;;;;;;26176242;22;20593;-73
2022/08/15 14:25:10;;;;;;;0.20;0.00;;;33.60;99.90;;;;;;26174840;22;20156;-71
2022/08/15 14:35:35;;;;;;;0.20;0.00;;;33.70;99.90;;;;;;26172074;22;20176;-71
2022/08/15 14:45:49;;;;;;;0.20;0.00;;;33.70;99.90;;;;;;26142179;22;20170;-72
2022/08/15 14:56:14;;;;;;;0.20;0.00;;;33.30;99.90;;;;;;26143911;22;20198;-72
2022/08/15 15:06:21;;;;;;;0.20;0.00;;;33.30;99.90;;;;;;26142120;22;20191;-73
2022/08/15 15:16:33;;;;;;;0.20;0.00;;;32.90;99.90;;;;;;26172487;22;20194;-71
2022/08/15 15:26:46;;;;;;;0.20;0.00;;;33.20;99.90;;;;;;26174053;22;20198;-70
2022/08/15 15:36:59;;;;;;;0.20;0.00;;;33.70;99.90;;;;;;26170559;22;20183;-71
2022/08/15 15:47:11;;;;;;;0.20;0.00;;;31.70;99.90;;;;;;26168809;22;20175;-70
2022/08/15 15:57:27;;;;;;;0.20;0.00;;;30.30;99.90;;;;;;26169485;22;20183;-70
2022/08/15 16:07:53;;;;;;;0.20;0.00;;;30.00;99.90;;;;;;26163056;22;20184;-70
2022/08/15 16:18:06;;;;;;;0.20;0.00;;;29.90;99.90;;;;;;26167955;22;20199;-69
2022/08/15 16:28:37;;;;;;;0.20;0.00;;;29.70;99.90;;;;;;26170844;22;20182;-71
2022/08/15 16:38:46;;;;;;;0.20;0.00;;;29.20;99.90;;;;;;26167907;22;20175;-70
2022/08/15 16:49:25;;;;;;;0.20;0.10;;;29.20;99.90;;;;;;26141767;22;20174;-70
2022/08/15 16:59:42;;;;;;;0.20;0.03;;;28.90;99.90;;;;;;26169129;22;20187;-69
2022/08/15 17:10:01;;;;;;;0.20;0.00;;;28.80;99.90;;;;;;26140673;22;20220;-70
2022/08/15 17:20:11;;;;;;;0.20;0.00;;;28.70;99.90;;;;;;26142691;22;20187;-72
2022/08/15 17:30:29;;;;;;;0.20;0.00;;;29.50;99.90;;;;;;26167928;22;20151;-71
2022/08/15 17:40:59;;;;;;;0.20;0.00;;;30.60;99.90;;;;;;26140293;22;20202;-71
2022/08/15 17:51:08;;;;;;;0.20;0.00;;;30.60;99.90;;;;;;26139739;22;20162;-71
2022/08/15 18:01:21;;;;;;;0.20;0.00;;;30.20;99.90;;;;;;26167241;22;20239;-70
2022/08/15 18:11:31;;;;;;;0.20;0.00;;;29.90;99.90;;;;;;26166323;22;20222;-70
2022/08/15 18:21:47;;;;;;;0.20;0.00;;;28.10;99.90;;;;;;26167195;22;20266;-70
2022/08/15 18:32:07;;;;;;;0.20;0.00;;;27.60;99.90;;;;;;26167850;22;20167;-70
2022/08/15 18:42:22;;;;;;;0.20;0.00;;;27.20;99.90;;;;;;26164240;22;20201;-69
2022/08/15 18:52:35;;;;;;;0.20;0.00;;;27.20;99.90;;;;;;26148344;22;20174;-70
2022/08/15 19:02:53;;;;;;;0.20;0.10;;;27.20;99.90;;;;;;26170490;22;20171;-71
2022/08/15 19:13:06;;;;;;;0.20;0.00;;;26.90;99.90;;;;;;26172531;22;20279;-68
2022/08/15 19:23:12;;;;;;;0.20;0.00;;;27.00;99.90;;;;;;26142488;22;20231;-70
2022/08/15 19:33:27;;;;;;;0.20;0.00;;;27.00;99.90;;;;;;26146047;22;20270;-68
2022/08/15 19:43:45;;;;;;;0.20;0.00;;;27.00;99.90;;;;;;26146781;22;20194;-69
2022/08/15 19:54:15;;;;;;;0.20;0.00;;;26.80;99.90;;;;;;26141844;22;20202;-68
2022/08/15 20:04:51;;;;;;;0.20;0.10;;;26.90;99.90;;;;;;26169881;22;20191;-68
2022/08/15 20:15:14;;;;;;;0.20;0.00;;;26.70;99.90;;;;;;26141582;22;20215;-69
2022/08/15 20:25:25;;;;;;;0.20;0.00;;;26.10;99.90;;;;;;26170222;22;20175;-69
2022/08/15 20:35:37;;;;;;;0.20;0.00;;;25.90;99.90;;;;;;26168648;22;20187;-69
2022/08/15 20:45:45;;;;;;;0.20;0.00;;;25.70;99.90;;;;;;26171083;22;20174;-69
2022/08/15 20:55:53;;;;;;;0.20;0.00;;;25.80;99.90;;;;;;26143234;22;20198;-69
2022/08/15 21:06:00;;;;;;;0.20;0.00;;;25.70;99.90;;;;;;26165081;22;20188;-69
2022/08/15 21:16:45;;;;;;;0.20;0.00;;;25.50;99.90;;;;;;26142046;22;20195;-69
2022/08/15 21:27:09;;;;;;;0.20;0.00;;;25.30;99.90;;;;;;26166298;22;20189;-68
2022/08/15 21:37:44;;;;;;;0.20;0.00;;;25.30;99.90;;;;;;26142999;22;20191;-69
2022/08/15 21:48:31;;;;;;;0.20;0.00;;;25.30;99.90;;;;;;26169191;22;20159;-69
2022/08/15 21:59:18;;;;;;;0.20;0.00;;;25.10;99.90;;;;;;26137587;22;20183;-67
2022/08/15 22:09:47;;;;;;;0.20;0.00;;;25.20;99.90;;;;;;26165788;22;20219;-67
2022/08/15 22:20:15;;;;;;;0.20;0.00;;;25.00;99.90;;;;;;26167590;22;20187;-69
2022/08/15 22:30:35;;;;;;;0.20;0.00;;;24.80;99.90;;;;;;26173604;22;20175;-68
2022/08/15 22:40:42;;;;;;;0.20;0.00;;;24.70;99.90;;;;;;26173735;22;20230;-70
2022/08/15 22:50:54;;;;;;;0.20;0.00;;;24.70;99.90;;;;;;26176964;22;20167;-69
2022/08/15 23:01:00;;;;;;;0.20;0.10;;;24.80;99.90;;;;;;26146270;22;20186;-69
2022/08/15 23:11:12;;;;;;;0.20;0.10;;;24.70;99.90;;;;;;26169395;22;20226;-68
2022/08/15 23:21:23;;;;;;;0.20;0.00;;;24.70;99.90;;;;;;26176404;22;20229;-69
2022/08/15 23:31:43;;;;;;;0.20;0.00;;;24.80;99.90;;;;;;26147635;22;20183;-68
2022/08/15 23:42:02;;;;;;;0.20;0.00;;;24.70;99.90;;;;;;26174715;22;20183;-68
2022/08/15 23:52:06;;;;;;;0.20;0.00;;;24.60;99.90;;;;;;26172910;22;20174;-69
